Time;durP1;ratioP1;P1;durP2;ratioP2;P2;SDS_P1;SDS_P2;PMS_P1;PMS_P2;Temp;Humidity;BMP_temperature;BMP_pressure;BME280_temperature;BME280_humidity;BME280_pressure;Samples;Min_cycle;Max_cycle;Signal;HPM_P1;HPM_P2
2022/04/11 00:01:51;;;;;;;6.00;4.25;;;2.80;99.90;;;;;;4998532;28;94152;-32
2022/04/11 00:04:17;;;;;;;6.05;4.97;;;2.90;99.90;;;;;;4999477;28;92127;-33
2022/04/11 00:06:43;;;;;;;10.48;4.18;;;2.90;99.90;;;;;;4999295;28;93588;-32
2022/04/11 00:09:08;;;;;;;7.15;5.78;;;3.00;99.90;;;;;;4998526;28;95856;-34
2022/04/11 00:11:34;;;;;;;5.03;4.38;;;2.90;99.90;;;;;;4998665;28;96400;-38
2022/04/11 00:14:01;;;;;;;6.53;5.20;;;2.90;99.90;;;;;;4998601;28;93102;-32
2022/04/11 00:16:28;;;;;;;11.77;5.15;;;2.90;99.90;;;;;;4999752;28;93393;-30
2022/04/11 00:18:53;;;;;;;6.00;4.90;;;2.90;99.90;;;;;;4998334;28;94637;-34
2022/04/11 00:21:19;;;;;;;6.15;5.03;;;2.90;99.90;;;;;;4999141;28;94455;-32
2022/04/11 00:23:44;;;;;;;5.35;4.60;;;2.80;99.90;;;;;;4998348;28;92212;-34
2022/04/11 00:26:10;;;;;;;9.45;4.53;;;2.90;99.90;;;;;;5022048;22;94726;-33
2022/04/11 00:28:35;;;;;;;5.20;4.40;;;2.80;99.90;;;;;;4978990;28;94937;-32
2022/04/11 00:31:01;;;;;;;4.97;3.97;;;2.90;99.90;;;;;;4979020;28;99427;-32
2022/04/11 00:33:27;;;;;;;5.60;4.30;;;2.80;99.90;;;;;;4978495;28;92643;-35
2022/04/11 00:35:52;;;;;;;5.13;3.75;;;2.80;99.90;;;;;;4978053;28;93051;-36
2022/04/11 00:38:18;;;;;;;5.93;4.43;;;2.80;99.90;;;;;;4978697;28;96072;-33
2022/04/11 00:40:43;;;;;;;6.57;3.42;;;2.80;99.90;;;;;;4978129;28;98374;-34
2022/04/11 00:43:09;;;;;;;9.60;3.72;;;2.90;99.90;;;;;;4978946;28;93905;-33
2022/04/11 00:45:34;;;;;;;8.90;3.58;;;3.00;99.90;;;;;;4978172;28;92622;-37
2022/04/11 00:48:00;;;;;;;6.03;3.30;;;3.00;99.90;;;;;;4978197;28;94508;-36
2022/04/11 00:50:26;;;;;;;5.60;3.90;;;3.00;99.90;;;;;;4978788;28;94400;-36
2022/04/11 00:52:54;;;;;;;4.10;3.25;;;3.00;99.90;;;;;;4978575;28;93530;-34
2022/04/11 00:55:21;;;;;;;;;;;2.90;99.90;;;;;;4978981;28;91416;-32
2022/04/11 00:57:48;;;;;;;3.88;3.10;;;3.00;99.90;;;;;;4979396;28;94607;-32
2022/04/11 01:00:14;;;;;;;8.20;2.78;;;3.00;99.90;;;;;;4978244;28;94594;-33
2022/04/11 01:02:40;;;;;;;4.07;3.58;;;3.00;99.90;;;;;;4977389;28;93177;-33
2022/04/11 01:05:07;;;;;;;4.15;3.67;;;3.00;99.90;;;;;;4978797;28;93834;-32
2022/04/11 01:07:34;;;;;;;5.93;3.97;;;3.10;99.90;;;;;;4978620;28;94968;-33
2022/04/11 01:10:00;;;;;;;7.70;2.95;;;3.10;99.90;;;;;;4977828;28;94908;-35
2022/04/11 01:12:26;;;;;;;4.63;3.10;;;3.10;99.90;;;;;;4978739;28;93351;-33
2022/04/11 01:14:51;;;;;;;3.22;2.92;;;3.20;99.90;;;;;;4977615;28;93036;-33
2022/04/11 01:17:17;;;;;;;4.88;2.80;;;3.20;99.90;;;;;;4977719;28;94768;-35
2022/04/11 01:19:42;;;;;;;7.30;3.92;;;3.20;99.90;;;;;;4978143;28;96294;-33
2022/04/11 01:22:08;;;;;;;4.20;3.45;;;3.20;99.90;;;;;;4977694;28;92165;-35
2022/04/11 01:24:36;;;;;;;3.55;3.10;;;3.20;99.90;;;;;;4978421;28;92455;-33
2022/04/11 01:27:02;;;;;;;3.30;3.10;;;3.20;99.90;;;;;;4976548;28;94788;-35
2022/04/11 01:29:27;;;;;;;5.60;3.70;;;3.20;99.90;;;;;;4977424;28;94869;-32
2022/04/11 01:31:53;;;;;;;4.18;3.35;;;3.10;99.90;;;;;;4978009;28;92878;-35
2022/04/11 01:34:19;;;;;;;6.30;3.60;;;3.10;99.90;;;;;;4977282;28;92656;-33
2022/04/11 01:36:44;;;;;;;3.88;3.47;;;3.10;99.90;;;;;;4977501;28;95242;-35
2022/04/11 01:39:10;;;;;;;6.75;3.58;;;3.10;99.90;;;;;;4977667;28;95877;-32
2022/04/11 01:41:35;;;;;;;6.25;4.13;;;2.90;99.90;;;;;;4977836;28;93584;-33
2022/04/11 01:44:01;;;;;;;4.53;3.78;;;2.90;99.90;;;;;;4978212;28;91749;-32
2022/04/11 01:46:27;;;;;;;4.18;3.60;;;2.80;99.90;;;;;;4976708;28;94766;-33
2022/04/11 01:48:52;;;;;;;4.82;3.58;;;2.80;99.90;;;;;;4977589;28;97929;-36
2022/04/11 01:51:18;;;;;;;6.13;4.30;;;2.70;99.90;;;;;;4977153;28;94710;-35
2022/04/11 01:53:44;;;;;;;4.13;3.08;;;2.70;99.90;;;;;;4977227;28;93119;-33
2022/04/11 01:56:09;;;;;;;4.35;3.20;;;2.80;99.90;;;;;;4977235;28;94802;-34
2022/04/11 01:58:35;;;;;;;4.93;3.00;;;2.70;99.90;;;;;;4977001;28;94717;-33
2022/04/11 02:01:00;;;;;;;4.53;4.00;;;2.80;99.90;;;;;;4977292;28;93385;-34
2022/04/11 02:03:26;;;;;;;3.65;3.28;;;2.80;99.90;;;;;;4977216;28;93451;-34
2022/04/11 02:05:52;;;;;;;7.78;4.03;;;2.80;99.90;;;;;;4976935;28;94992;-35
2022/04/11 02:08:17;;;;;;;7.25;3.53;;;2.80;99.90;;;;;;4977351;28;94547;-34
2022/04/11 02:10:43;;;;;;;9.15;4.43;;;2.80;99.90;;;;;;4977286;28;93368;-33
2022/04/11 02:13:09;;;;;;;4.05;2.80;;;2.70;99.90;;;;;;4976838;28;94433;-33
2022/04/11 02:15:35;;;;;;;4.40;3.15;;;2.60;99.90;;;;;;4975821;28;95595;-35
2022/04/11 02:18:01;;;;;;;6.30;3.28;;;2.50;99.90;;;;;;4977300;28;94732;-35
2022/04/11 02:20:26;;;;;;;3.72;3.28;;;2.40;99.90;;;;;;4977254;28;93435;-35
2022/04/11 02:22:54;;;;;;;3.85;3.15;;;2.30;99.90;;;;;;4977003;28;93097;-35
2022/04/11 02:25:22;;;;;;;5.78;3.97;;;2.20;99.90;;;;;;4976740;28;94729;-37
2022/04/11 02:27:48;;;;;;;4.90;3.90;;;2.10;99.90;;;;;;4976342;28;94834;-33
2022/04/11 02:30:15;;;;;;;5.32;3.45;;;2.00;99.90;;;;;;4976798;28;93669;-33
2022/04/11 02:32:41;;;;;;;8.63;3.88;;;1.90;99.90;;;;;;4977552;28;93359;-36
2022/04/11 02:35:07;;;;;;;5.63;4.70;;;1.70;99.90;;;;;;4976603;28;95226;-32
2022/04/11 02:37:34;;;;;;;6.43;4.10;;;1.70;99.90;;;;;;4976049;28;96447;-33
2022/04/11 02:40:00;;;;;;;4.60;4.20;;;1.60;99.90;;;;;;4976798;28;93323;-34
2022/04/11 02:42:28;;;;;;;4.88;4.40;;;1.60;99.90;;;;;;4976585;28;93128;-34
2022/04/11 02:44:54;;;;;;;5.05;4.20;;;1.50;99.90;;;;;;4976262;28;94666;-32
2022/04/11 02:47:20;;;;;;;4.80;3.92;;;1.50;99.90;;;;;;4976697;28;94265;-33
2022/04/11 02:49:47;;;;;;;4.22;3.92;;;1.50;99.90;;;;;;4976695;28;94232;-34
2022/04/11 02:52:14;;;;;;;10.85;3.95;;;1.40;99.90;;;;;;4976357;28;93112;-33
2022/04/11 02:54:40;;;;;;;4.85;4.22;;;1.40;99.90;;;;;;4976426;28;94877;-33
2022/04/11 02:57:06;;;;;;;5.72;4.60;;;1.30;99.90;;;;;;4979021;28;94433;-34
2022/04/11 02:59:33;;;;;;;3.83;3.53;;;1.30;99.90;;;;;;4980148;28;94219;-33
2022/04/11 03:01:59;;;;;;;5.13;4.60;;;1.20;99.90;;;;;;4980116;28;92066;-32
2022/04/11 03:04:26;;;;;;;5.78;4.43;;;1.20;99.90;;;;;;4979191;28;96349;-32
2022/04/11 03:06:52;;;;;;;5.22;4.72;;;1.20;99.90;;;;;;4979289;28;95300;-32
2022/04/11 03:09:18;;;;;;;7.43;4.57;;;1.10;99.90;;;;;;4980583;28;93968;-32
2022/04/11 03:11:43;;;;;;;4.82;3.95;;;1.10;99.90;;;;;;4978965;28;94638;-33
2022/04/11 03:14:09;;;;;;;6.47;4.88;;;1.10;99.90;;;;;;4979931;28;96890;-33
2022/04/11 03:16:34;;;;;;;6.28;5.03;;;1.10;99.90;;;;;;4979300;28;94679;-39
2022/04/11 03:19:00;;;;;;;8.32;4.25;;;1.10;99.90;;;;;;4980529;28;93151;-32
2022/04/11 03:21:25;;;;;;;6.30;4.22;;;1.10;99.90;;;;;;4980535;28;93743;-32
2022/04/11 03:23:51;;;;;;;5.82;4.53;;;1.10;99.90;;;;;;4979125;28;94270;-33
2022/04/11 03:26:16;;;;;;;6.18;5.00;;;1.00;99.90;;;;;;4979286;28;94606;-35
2022/04/11 03:28:42;;;;;;;4.72;3.95;;;0.90;99.90;;;;;;4979159;28;93762;-35
2022/04/11 03:31:07;;;;;;;4.05;3.65;;;0.80;99.90;;;;;;4980117;28;93120;-34
2022/04/11 03:33:33;;;;;;;6.50;4.63;;;0.80;99.90;;;;;;4979578;28;96503;-34
2022/04/11 03:35:59;;;;;;;5.22;4.13;;;0.80;99.90;;;;;;4978722;28;94723;-33
2022/04/11 03:38:24;;;;;;;6.28;4.03;;;0.80;99.90;;;;;;4979759;28;93517;-35
2022/04/11 03:40:50;;;;;;;6.55;4.28;;;0.80;99.90;;;;;;4979110;28;92748;-32
2022/04/11 03:43:15;;;;;;;4.03;3.63;;;0.70;99.90;;;;;;4979415;28;94906;-35
2022/04/11 03:45:41;;;;;;;4.05;3.63;;;0.80;99.90;;;;;;4979081;28;94487;-36
2022/04/11 03:48:07;;;;;;;4.03;3.72;;;0.80;99.90;;;;;;4979824;28;93372;-33
2022/04/11 03:50:32;;;;;;;5.15;4.63;;;0.80;99.90;;;;;;4978801;28;92691;-35
2022/04/11 03:52:58;;;;;;;5.10;4.40;;;0.80;99.90;;;;;;4978629;28;95971;-34
2022/04/11 03:55:24;;;;;;;4.40;4.07;;;0.80;99.90;;;;;;4979201;28;99432;-33
2022/04/11 03:57:50;;;;;;;5.88;4.63;;;0.80;99.90;;;;;;4978583;28;92597;-32
2022/04/11 04:00:16;;;;;;;4.57;4.10;;;0.70;99.90;;;;;;4979362;28;94444;-33
2022/04/11 04:02:43;;;;;;;4.65;4.25;;;0.80;99.90;;;;;;4978677;28;94597;-32
2022/04/11 04:05:09;;;;;;;4.65;4.25;;;0.80;99.90;;;;;;4978739;28;94718;-32
2022/04/11 04:07:36;;;;;;;4.05;3.67;;;0.90;99.90;;;;;;4978951;28;93460;-39
2022/04/11 04:10:05;;;;;;;9.77;5.68;;;1.00;99.90;;;;;;4979797;28;93589;-33
2022/04/11 04:12:31;;;;;;;5.35;4.85;;;1.10;99.90;;;;;;4978753;28;95456;-36
2022/04/11 04:14:56;;;;;;;6.25;5.70;;;1.20;99.90;;;;;;4978805;28;95620;-36
2022/04/11 04:17:22;;;;;;;7.38;4.85;;;1.30;99.90;;;;;;4978088;28;94546;-34
2022/04/11 04:19:48;;;;;;;6.15;4.32;;;1.30;99.90;;;;;;4978519;28;93037;-33
2022/04/11 04:22:14;;;;;;;9.57;4.70;;;1.40;99.90;;;;;;4978905;28;95022;-32
2022/04/11 04:24:40;;;;;;;4.00;3.70;;;1.50;99.90;;;;;;4977934;28;94828;-33
2022/04/11 04:27:07;;;;;;;6.13;4.53;;;1.50;99.90;;;;;;4978541;28;92843;-34
2022/04/11 04:29:33;;;;;;;7.75;7.05;;;1.50;99.90;;;;;;4979216;28;92669;-36
2022/04/11 04:31:58;;;;;;;10.98;9.98;;;1.40;99.90;;;;;;4978165;28;94738;-33
2022/04/11 04:34:29;;;;;;;10.35;8.82;;;1.30;99.90;;;;;;4978295;28;94095;-33
2022/04/11 04:36:55;;;;;;;9.93;7.30;;;1.20;99.90;;;;;;4978587;28;93948;-34
2022/04/11 04:39:20;;;;;;;6.97;6.38;;;1.20;99.90;;;;;;4978769;28;93165;-35
2022/04/11 04:41:46;;;;;;;11.88;6.65;;;1.20;99.90;;;;;;4977474;28;95769;-34
2022/04/11 04:44:12;;;;;;;6.68;6.07;;;1.20;99.90;;;;;;4978948;28;95729;-32
2022/04/11 04:46:37;;;;;;;15.43;5.90;;;1.20;99.90;;;;;;4977679;28;93084;-33
2022/04/11 04:49:03;;;;;;;6.03;4.30;;;1.20;99.90;;;;;;4978920;28;94006;-33
2022/04/11 04:51:29;;;;;;;9.88;5.85;;;1.30;99.90;;;;;;4977902;28;94739;-32
2022/04/11 04:53:55;;;;;;;5.18;4.68;;;1.30;99.90;;;;;;4978074;28;94522;-37
2022/04/11 04:56:20;;;;;;;5.40;4.78;;;1.30;99.90;;;;;;4979102;28;94792;-34
2022/04/11 04:58:46;;;;;;;5.68;5.18;;;1.30;99.90;;;;;;4978264;28;91458;-34
2022/04/11 05:01:15;;;;;;;6.20;5.57;;;1.30;99.90;;;;;;4978453;28;95527;-33
2022/04/11 05:03:41;;;;;;;8.45;7.65;;;1.40;99.90;;;;;;4979051;28;94593;-33
2022/04/11 05:06:07;;;;;;;8.80;7.88;;;1.40;99.90;;;;;;4977713;28;95778;-33
2022/04/11 05:08:33;;;;;;;8.68;7.28;;;1.40;99.90;;;;;;4978170;28;92222;-33
2022/04/11 05:10:59;;;;;;;9.43;6.88;;;1.50;99.90;;;;;;4978251;28;94387;-33
2022/04/11 05:13:25;;;;;;;7.20;6.50;;;1.50;99.90;;;;;;4978246;28;95766;-32
2022/04/11 05:15:51;;;;;;;7.95;6.95;;;1.60;99.90;;;;;;4978009;28;94400;-34
2022/04/11 05:18:16;;;;;;;10.43;6.45;;;1.60;99.90;;;;;;4978228;28;92930;-36
2022/04/11 05:20:42;;;;;;;9.43;6.95;;;1.60;99.90;;;;;;4977632;28;94587;-36
2022/04/11 05:23:08;;;;;;;10.25;6.40;;;1.60;99.90;;;;;;4977998;28;96223;-33
2022/04/11 05:25:33;;;;;;;8.57;6.30;;;1.70;99.90;;;;;;4977691;28;93161;-33
2022/04/11 05:27:59;;;;;;;9.07;8.05;;;1.70;99.90;;;;;;4978019;28;93299;-35
2022/04/11 05:30:25;;;;;;;11.75;8.73;;;1.70;99.90;;;;;;4976596;28;95905;-34
2022/04/11 05:32:50;;;;;;;6.55;5.88;;;1.80;99.90;;;;;;4977960;28;95369;-33
2022/04/11 05:35:16;;;;;;;9.63;6.63;;;1.80;99.90;;;;;;4978076;28;93042;-36
2022/04/11 05:37:42;;;;;;;9.70;5.93;;;1.80;99.90;;;;;;4977614;28;94396;-32
2022/04/11 05:40:09;;;;;;;7.50;6.72;;;1.80;99.90;;;;;;4978218;28;94749;-33
2022/04/11 05:42:38;;;;;;;6.53;5.43;;;1.80;99.90;;;;;;4976832;28;94945;-35
2022/04/11 05:45:05;;;;;;;7.57;6.47;;;1.90;99.90;;;;;;4977965;28;94569;-34
2022/04/11 05:47:30;;;;;;;10.05;7.05;;;1.90;99.90;;;;;;4977282;28;92614;-34
2022/04/11 05:49:56;;;;;;;8.80;7.75;;;2.00;99.90;;;;;;4977349;28;95308;-33
2022/04/11 05:52:22;;;;;;;9.77;7.47;;;2.00;99.90;;;;;;4977679;28;94289;-32
2022/04/11 05:54:47;;;;;;;7.85;7.15;;;2.20;99.90;;;;;;4977222;28;93874;-33
2022/04/11 05:57:13;;;;;;;12.35;8.18;;;2.30;99.90;;;;;;4976924;28;92163;-33
2022/04/11 05:59:39;;;;;;;9.25;7.45;;;2.30;99.90;;;;;;4903524;28;94932;-32
2022/04/11 06:02:05;;;;;;;11.13;8.43;;;2.30;99.90;;;;;;4955978;28;94072;-33
2022/04/11 06:04:31;;;;;;;12.15;7.93;;;2.30;99.90;;;;;;4957911;28;93913;-34
2022/04/11 06:06:56;;;;;;;11.20;7.43;;;2.30;99.90;;;;;;4957686;28;94004;-33
2022/04/11 06:09:22;;;;;;;7.93;7.13;;;2.40;99.90;;;;;;4957132;28;94590;-33
2022/04/11 06:11:47;;;;;;;11.00;7.40;;;2.40;99.90;;;;;;4957981;28;98196;-35
2022/04/11 06:14:13;;;;;;;8.90;7.68;;;2.40;99.90;;;;;;4957528;28;92861;-36
2022/04/11 06:16:38;;;;;;;9.00;7.90;;;2.40;99.90;;;;;;4957007;28;94559;-35
2022/04/11 06:19:04;;;;;;;9.13;7.22;;;2.40;99.90;;;;;;4956329;28;95536;-34
2022/04/11 06:21:29;;;;;;;8.77;7.82;;;2.50;99.90;;;;;;4956603;28;95310;-37
2022/04/11 06:23:55;;;;;;;8.68;7.80;;;2.50;99.90;;;;;;4957692;28;93827;-31
2022/04/11 06:26:21;;;;;;;11.88;9.40;;;2.50;99.90;;;;;;4955640;28;94541;-33
2022/04/11 06:28:47;;;;;;;11.70;10.38;;;2.60;99.90;;;;;;4954301;28;94891;-35
2022/04/11 06:31:15;;;;;;;11.57;9.48;;;2.70;99.90;;;;;;4952568;28;94938;-34
2022/04/11 06:33:41;;;;;;;;;;;2.70;99.90;;;;;;4954262;28;94019;-33
2022/04/11 06:36:06;;;;;;;8.32;7.53;;;2.80;99.90;;;;;;4975215;28;91562;-34
2022/04/11 06:38:32;;;;;;;12.30;9.43;;;2.70;99.90;;;;;;4974265;28;96984;-33
2022/04/11 06:40:59;;;;;;;9.63;8.73;;;2.80;99.90;;;;;;4974383;28;92911;-36
2022/04/11 06:43:25;;;;;;;11.98;9.52;;;2.90;99.90;;;;;;4974682;28;95255;-35
2022/04/11 06:45:50;;;;;;;9.65;7.65;;;2.80;99.90;;;;;;4974375;28;93613;-35
2022/04/11 06:48:16;;;;;;;10.43;8.77;;;2.90;99.90;;;;;;4975194;28;96235;-33
2022/04/11 06:50:42;;;;;;;9.80;8.75;;;2.90;99.90;;;;;;4974551;28;94425;-33
2022/04/11 06:53:09;;;;;;;18.02;9.25;;;2.90;99.90;;;;;;4974875;28;94174;-31
2022/04/11 06:55:34;;;;;;;9.50;8.65;;;3.00;99.90;;;;;;4974599;28;94390;-37
2022/04/11 06:58:00;;;;;;;10.45;9.30;;;3.00;99.90;;;;;;4973788;28;94847;-33
2022/04/11 07:00:26;;;;;;;15.60;9.57;;;3.00;99.90;;;;;;4975487;28;94571;-37
2022/04/11 07:02:51;;;;;;;11.00;8.00;;;3.10;99.90;;;;;;4974499;28;94778;-35
2022/04/11 07:05:17;;;;;;;10.05;9.15;;;3.20;99.90;;;;;;4957527;28;93878;-37
2022/04/11 07:07:43;;;;;;;9.88;8.88;;;3.20;99.90;;;;;;4954093;28;95522;-32
2022/04/11 07:10:11;;;;;;;12.50;9.65;;;3.20;99.90;;;;;;4954506;28;96195;-32
2022/04/11 07:12:39;;;;;;;;;;;3.40;99.90;;;;;;4954978;28;94313;-33
2022/04/11 07:15:06;;;;;;;11.45;8.73;;;3.40;99.90;;;;;;4956368;28;92245;-35
2022/04/11 07:17:32;;;;;;;9.88;8.90;;;3.30;99.90;;;;;;4954105;28;95804;-32
2022/04/11 07:19:58;;;;;;;9.32;8.25;;;3.40;99.90;;;;;;4954110;28;94836;-34
2022/04/11 07:22:23;;;;;;;10.88;9.88;;;3.40;99.90;;;;;;4955350;28;93385;-34
2022/04/11 07:24:49;;;;;;;12.20;10.20;;;3.50;99.90;;;;;;4954919;28;92277;-33
2022/04/11 07:27:15;;;;;;;10.82;9.65;;;3.60;99.90;;;;;;4953087;28;95271;-33
2022/04/11 07:29:41;;;;;;;11.70;9.75;;;3.70;99.90;;;;;;4954937;28;93319;-33
2022/04/11 07:32:07;;;;;;;11.35;10.05;;;3.80;99.90;;;;;;4953605;28;95503;-33
2022/04/11 07:34:33;;;;;;;11.65;10.05;;;4.00;99.90;;;;;;4953897;28;93648;-36
2022/04/11 07:36:59;;;;;;;14.00;11.32;;;4.10;99.90;;;;;;4952861;28;96722;-36
2022/04/11 07:39:24;;;;;;;12.38;10.88;;;4.30;99.90;;;;;;4953668;28;95276;-34
2022/04/11 07:41:51;;;;;;;11.45;10.30;;;4.30;99.90;;;;;;4954378;28;92710;-32
2022/04/11 07:44:16;;;;;;;11.73;9.18;;;4.40;99.90;;;;;;4956280;28;92257;-32
2022/04/11 07:46:42;;;;;;;11.52;10.38;;;4.50;99.90;;;;;;4956776;28;94483;-35
2022/04/11 07:49:08;;;;;;;11.50;10.30;;;4.60;99.90;;;;;;4956790;28;94615;-36
2022/04/11 07:51:34;;;;;;;11.60;9.88;;;4.70;99.90;;;;;;4956553;28;94586;-36
2022/04/11 07:54:00;;;;;;;11.75;10.60;;;4.80;99.90;;;;;;4957653;28;94615;-34
2022/04/11 07:56:28;;;;;;;14.07;10.85;;;4.90;99.90;;;;;;4955595;28;95731;-35
2022/04/11 07:58:57;;;;;;;18.75;10.88;;;5.10;99.90;;;;;;4956009;28;95056;-33
2022/04/11 08:01:24;;;;;;;14.80;10.45;;;5.20;99.90;;;;;;4956471;28;92764;-34
2022/04/11 08:03:50;;;;;;;11.30;10.15;;;5.30;99.90;;;;;;4956986;28;92892;-33
2022/04/11 08:06:17;;;;;;;14.15;12.43;;;5.40;99.90;;;;;;4955864;28;94799;-33
2022/04/11 08:08:44;;;;;;;15.93;12.70;;;5.60;99.90;;;;;;4956785;28;93564;-34
2022/04/11 08:11:11;;;;;;;13.40;10.27;;;5.90;99.90;;;;;;4957084;28;94351;-34
2022/04/11 08:13:38;;;;;;;14.77;11.07;;;5.90;99.90;;;;;;4957005;28;92106;-32
2022/04/11 08:16:04;;;;;;;12.32;11.15;;;6.10;99.90;;;;;;4956323;28;94999;-33
2022/04/11 08:18:30;;;;;;;21.63;11.10;;;6.20;99.90;;;;;;4956828;28;94626;-32
2022/04/11 08:20:56;;;;;;;15.35;13.20;;;6.30;99.90;;;;;;4956027;28;93562;-32
2022/04/11 08:23:21;;;;;;;13.43;10.80;;;6.40;99.90;;;;;;4956749;28;94428;-35
2022/04/11 08:25:48;;;;;;;13.27;11.93;;;6.60;99.90;;;;;;4956488;28;96712;-33
2022/04/11 08:28:13;;;;;;;16.52;11.50;;;6.80;99.90;;;;;;4955815;28;94347;-35
2022/04/11 08:30:39;;;;;;;17.30;11.85;;;7.10;99.90;;;;;;4957029;28;93303;-34
2022/04/11 08:33:05;;;;;;;11.43;10.23;;;7.20;99.90;;;;;;4956075;28;93186;-33
2022/04/11 08:35:30;;;;;;;12.02;10.73;;;7.20;99.90;;;;;;4956427;28;94910;-33
2022/04/11 08:37:56;;;;;;;13.15;11.27;;;7.50;99.90;;;;;;4956386;28;94541;-35
2022/04/11 08:40:21;;;;;;;14.35;11.13;;;7.50;99.90;;;;;;4956274;28;93555;-33
2022/04/11 08:42:51;;;;;;;11.20;9.93;;;7.60;99.90;;;;;;4956143;28;93011;-34
2022/04/11 08:45:22;;;;;;;21.40;11.20;;;7.60;99.90;;;;;;4956098;28;96458;-33
2022/04/11 08:47:48;;;;;;;13.30;10.45;;;7.90;99.90;;;;;;4956053;28;95435;-35
2022/04/11 08:50:14;;;;;;;12.60;9.27;;;8.20;99.90;;;;;;4939263;28;94924;-35
2022/04/11 08:52:40;;;;;;;10.52;9.32;;;8.40;99.90;;;;;;4956050;28;93439;-36
2022/04/11 08:55:07;;;;;;;17.65;11.77;;;8.50;99.90;;;;;;4966677;28;95019;-34
2022/04/11 08:57:34;;;;;;;13.77;11.38;;;9.10;99.90;;;;;;4975466;28;95114;-37
2022/04/11 09:00:10;;;;;;;13.07;11.23;;;9.00;99.90;;;;;;4975676;28;93202;-35
2022/04/11 09:02:36;;;;;;;13.30;10.07;;;9.10;99.90;;;;;;4975750;28;93093;-36
2022/04/11 09:05:03;;;;;;;12.57;9.93;;;9.20;99.90;;;;;;4975899;28;94799;-34
2022/04/11 09:07:53;;;;;;;10.93;9.48;;;9.70;99.90;;;;;;4975138;28;94770;-35
2022/04/11 09:10:28;;;;;;;13.38;9.13;;;9.90;99.90;;;;;;4975909;28;95083;-33
2022/04/11 09:12:59;;;;;;;8.65;7.88;;;9.90;99.90;;;;;;4957872;28;93354;-34
2022/04/11 09:15:26;;;;;;;12.75;8.75;;;10.10;99.90;;;;;;4976050;28;94791;-36
2022/04/11 09:17:53;;;;;;;8.70;7.55;;;10.40;99.90;;;;;;4976027;28;94907;-32
2022/04/11 09:20:26;;;;;;;11.93;7.40;;;10.80;99.90;;;;;;4976159;28;94345;-34
2022/04/11 09:22:52;;;;;;;9.73;7.05;;;10.90;99.70;;;;;;4975827;28;93632;-34
2022/04/11 09:25:20;;;;;;;13.05;8.80;;;11.20;99.90;;;;;;4975749;28;94926;-34
2022/04/11 09:27:46;;;;;;;7.37;6.63;;;11.40;95.80;;;;;;4975194;28;94994;-33
2022/04/11 09:30:23;;;;;;;15.23;8.40;;;11.60;97.20;;;;;;4976092;28;94165;-34
2022/04/11 09:32:56;;;;;;;9.82;8.13;;;12.10;99.90;;;;;;4975717;28;94178;-34
2022/04/11 09:35:30;;;;;;;16.67;8.30;;;12.00;98.70;;;;;;4975251;28;96055;-37
2022/04/11 09:38:12;;;;;;;11.15;8.20;;;11.80;91.00;;;;;;4975436;28;96731;-33
2022/04/11 09:40:44;;;;;;;8.85;6.38;;;12.20;97.00;;;;;;4975972;28;92713;-34
2022/04/11 09:43:11;;;;;;;8.30;5.50;;;11.80;86.60;;;;;;4975251;28;93447;-35
2022/04/11 09:45:50;;;;;;;10.27;5.28;;;11.40;75.90;;;;;;4975592;28;94871;-35
2022/04/11 09:48:26;;;;;;;10.07;5.43;;;11.40;81.50;;;;;;4975556;28;94993;-37
2022/04/11 09:50:53;;;;;;;6.88;4.50;;;11.30;77.40;;;;;;4976117;28;94242;-33
2022/04/11 09:53:23;;;;;;;6.45;4.65;;;11.60;76.40;;;;;;4975867;28;92011;-36
2022/04/11 09:55:53;;;;;;;7.35;5.50;;;11.80;96.50;;;;;;4974819;28;94699;-32
2022/04/11 09:58:21;;;;;;;6.22;4.75;;;12.00;69.50;;;;;;4975814;28;95227;-35
2022/04/11 10:00:49;;;;;;;6.85;4.88;;;12.40;72.00;;;;;;4974850;28;94282;-32
2022/04/11 10:03:15;;;;;;;7.05;5.65;;;12.60;70.20;;;;;;4975716;28;93616;-36
2022/04/11 10:05:41;;;;;;;5.72;4.85;;;12.40;69.50;;;;;;4975582;28;94804;-34
2022/04/11 10:08:09;;;;;;;6.68;4.50;;;12.50;70.30;;;;;;4974640;28;94542;-32
2022/04/11 10:10:38;;;;;;;9.50;5.07;;;12.60;66.80;;;;;;4975229;28;93571;-39
2022/04/11 10:13:10;;;;;;;5.75;4.22;;;13.00;67.10;;;;;;4975069;28;92404;-36
2022/04/11 10:15:37;;;;;;;6.50;4.30;;;13.10;65.10;;;;;;4974501;28;94655;-36
2022/04/11 10:18:04;;;;;;;11.27;5.78;;;12.70;60.00;;;;;;4975240;28;94612;-36
2022/04/11 10:20:34;;;;;;;8.93;5.43;;;13.00;64.30;;;;;;4975589;28;94677;-33
2022/04/11 10:23:13;;;;;;;9.73;5.22;;;12.60;66.60;;;;;;4974771;28;94010;-35
2022/04/11 10:25:49;;;;;;;5.82;5.30;;;12.80;65.40;;;;;;4973910;28;96651;-35
2022/04/11 10:28:27;;;;;;;6.00;4.85;;;13.10;65.60;;;;;;4974661;28;95758;-33
2022/04/11 10:31:11;;;;;;;6.60;5.00;;;12.60;61.40;;;;;;4974983;28;94926;-33
2022/04/11 10:33:42;;;;;;;6.57;4.47;;;12.60;61.60;;;;;;4975017;28;93078;-35
2022/04/11 10:36:27;;;;;;;4.85;3.97;;;12.90;64.10;;;;;;4974597;28;94493;-36
2022/04/11 10:39:15;;;;;;;6.10;4.40;;;13.10;60.40;;;;;;4974652;28;94952;-37
2022/04/11 10:41:58;;;;;;;10.97;5.17;;;12.70;59.70;;;;;;4975408;28;92737;-34
2022/04/11 10:44:37;;;;;;;7.63;5.13;;;12.60;59.40;;;;;;4974578;28;92457;-35
2022/04/11 10:47:09;;;;;;;7.47;4.80;;;12.80;64.50;;;;;;4974528;28;94965;-33
2022/04/11 10:49:50;;;;;;;5.07;4.57;;;13.00;63.30;;;;;;4974164;28;94498;-35
2022/04/11 10:52:33;;;;;;;5.50;4.95;;;12.90;62.40;;;;;;4975080;28;95667;-37
2022/04/11 10:55:22;;;;;;;6.18;4.90;;;13.00;61.80;;;;;;4974734;28;92679;-33
2022/04/11 10:57:56;;;;;;;9.65;6.88;;;12.60;60.80;;;;;;4973915;28;93833;-37
2022/04/11 11:00:28;;;;;;;11.00;6.78;;;12.60;63.50;;;;;;4974988;28;94500;-34
2022/04/11 11:02:55;;;;;;;8.48;6.55;;;12.70;62.10;;;;;;4974154;28;94833;-33
2022/04/11 11:05:28;;;;;;;8.23;6.65;;;13.00;61.20;;;;;;4974446;28;93141;-33
2022/04/11 11:08:12;;;;;;;7.07;6.38;;;13.40;61.60;;;;;;4974304;28;95705;-33
2022/04/11 11:10:44;;;;;;;12.18;7.40;;;13.40;60.00;;;;;;4974588;28;94856;-35
2022/04/11 11:13:35;;;;;;;12.02;8.73;;;13.20;60.60;;;;;;4974682;28;94276;-36
2022/04/11 11:16:21;;;;;;;10.23;7.97;;;13.40;59.30;;;;;;4975095;28;93531;-33
2022/04/11 11:18:46;;;;;;;13.07;8.10;;;13.20;56.70;;;;;;4977298;28;95712;-33
2022/04/11 11:21:16;;;;;;;10.73;7.82;;;13.30;58.60;;;;;;4978210;28;95330;-32
2022/04/11 11:24:11;;;;;;;8.93;6.97;;;13.40;57.60;;;;;;4977592;28;92382;-33
2022/04/11 11:26:45;;;;;;;9.80;7.70;;;13.50;61.70;;;;;;4977477;28;93512;-36
2022/04/11 11:29:33;;;;;;;9.05;8.10;;;13.60;62.70;;;;;;4978107;28;94413;-36
2022/04/11 11:32:02;;;;;;;10.85;8.48;;;13.60;59.80;;;;;;4977245;28;95399;-34
2022/04/11 11:34:30;;;;;;;12.55;8.93;;;13.10;58.30;;;;;;4977237;28;93294;-35
2022/04/11 11:36:59;;;;;;;11.88;7.72;;;12.90;60.60;;;;;;4977350;28;91934;-35
2022/04/11 11:39:26;;;;;;;10.07;9.07;;;13.10;59.40;;;;;;4976808;28;94721;-34
2022/04/11 11:41:54;;;;;;;13.90;9.05;;;12.90;58.80;;;;;;4977490;28;94015;-36
2022/04/11 11:44:20;;;;;;;11.93;10.43;;;13.40;60.90;;;;;;4977768;28;94990;-34
2022/04/11 11:46:58;;;;;;;10.02;9.02;;;13.40;57.50;;;;;;4976085;28;92556;-32
2022/04/11 11:49:26;;;;;;;11.85;10.00;;;13.60;58.80;;;;;;4976944;28;95069;-35
2022/04/11 11:51:52;;;;;;;10.52;9.40;;;14.00;60.40;;;;;;4976237;28;94527;-35
2022/04/11 11:54:39;;;;;;;15.98;8.93;;;14.20;60.60;;;;;;4977945;28;94579;-34
2022/04/11 11:57:28;;;;;;;13.65;11.27;;;14.20;58.50;;;;;;4977633;28;93369;-33
2022/04/11 12:00:03;;;;;;;11.13;10.07;;;14.40;59.30;;;;;;4975919;28;94616;-33
2022/04/11 12:05:28;;;;;;;13.40;10.90;;;14.00;63.60;;;;;;4977120;28;94317;-34
2022/04/11 12:08:02;;;;;;;12.18;10.70;;;13.60;58.50;;;;;;4976005;28;92371;-35
2022/04/11 12:10:29;;;;;;;11.43;10.18;;;14.10;59.80;;;;;;4975158;28;95803;-35
2022/04/11 12:12:55;;;;;;;12.25;10.98;;;13.90;61.10;;;;;;4975314;28;95556;-37
2022/04/11 12:15:21;;;;;;;12.70;10.52;;;13.70;59.30;;;;;;4976830;28;94810;-33
2022/04/11 12:17:49;;;;;;;11.38;9.73;;;13.60;58.90;;;;;;4975526;28;94606;-33
2022/04/11 12:20:22;;;;;;;13.02;10.00;;;13.50;59.80;;;;;;4975845;28;95003;-36
2022/04/11 12:23:11;;;;;;;14.45;12.75;;;13.80;60.90;;;;;;4975696;28;94592;-34
2022/04/11 12:25:49;;;;;;;15.60;11.00;;;13.40;57.00;;;;;;5011393;22;92219;-33
2022/04/11 12:28:36;;;;;;;11.63;10.45;;;13.30;57.10;;;;;;4915363;28;93170;-35
2022/04/11 12:31:13;;;;;;;12.82;10.05;;;13.70;61.10;;;;;;4917118;28;95641;-35
2022/04/11 12:33:42;;;;;;;11.32;9.85;;;13.60;56.90;;;;;;4916903;28;94741;-34
2022/04/11 12:36:17;;;;;;;13.63;10.38;;;13.50;60.60;;;;;;4917669;28;93182;-37
2022/04/11 12:38:50;;;;;;;13.02;10.85;;;13.70;60.00;;;;;;4916090;28;93446;-35
2022/04/11 12:41:36;;;;;;;14.70;10.13;;;13.90;58.10;;;;;;4915765;28;95211;-37
2022/04/11 12:44:08;;;;;;;12.90;10.68;;;13.70;56.00;;;;;;4915805;28;94817;-35
2022/04/11 12:46:41;;;;;;;11.70;10.60;;;13.90;58.50;;;;;;4917257;28;92595;-34
2022/04/11 12:49:08;;;;;;;12.13;10.32;;;13.80;58.70;;;;;;4915965;28;94088;-36
2022/04/11 12:51:35;;;;;;;12.63;11.30;;;14.00;57.50;;;;;;4916243;28;94891;-37
2022/04/11 12:54:05;;;;;;;12.82;11.48;;;13.80;56.60;;;;;;4917347;28;95205;-34
2022/04/11 12:56:36;;;;;;;12.40;11.27;;;13.70;58.80;;;;;;4916819;28;93973;-35